Sunday, October 22, 2017, 8:40 PM EDT
Back to Local

KPVC, Provincetown, Provincetown Municipal Airport

Location: Provincetown, MA, United States Lat: 42.067
Local Time: 8:40 PM EDT ( 0:40 GMT) Lon: -70.217
Time Zone: US/Eastern Elev: 6 ft

Show me the last for .
Show Decoded

2017-10-22 19:56 METAR KPVC 222356Z AUTO 00000KT 10SM CLR 11/10 A3041 RMK AO2 SLP295 T01110100
                 10189 20111 53004 =
2017-10-22 18:56 METAR KPVC 222256Z AUTO 00000KT 10SM CLR 13/13 A3040 RMK AO2 SLP293 T01330128 =
2017-10-22 17:56 METAR KPVC 222156Z AUTO 06004KT 10SM CLR 14/13 A3040 RMK AO2 SLP294 T01440133 =
2017-10-22 16:56 METAR KPVC 222056Z AUTO 06004KT 10SM CLR 16/13 A3039 RMK AO2 SLP292 T01610133
                 55002 =
2017-10-22 15:56 METAR KPVC 221956Z AUTO 04006KT 10SM CLR 18/14 A3039 RMK AO2 SLP290 T01780139 =
2017-10-22 14:56 METAR KPVC 221856Z AUTO 03006KT 10SM CLR 18/13 A3039 RMK AO2 SLP291 T01780128 =
2017-10-22 13:56 METAR KPVC 221756Z AUTO 36004KT 10SM CLR 18/13 A3040 RMK AO2 SLP294 T01830128
                 10194 20111 56005 =
2017-10-22 12:56 METAR KPVC 221656Z AUTO 32003KT 10SM CLR 19/12 A3040 RMK AO2 SLP294 T01940122 =
2017-10-22 11:56 METAR KPVC 221556Z AUTO 32004KT 10SM CLR 19/11 A3041 RMK AO2 SLP297 T01890111 =
2017-10-22 10:56 METAR KPVC 221456Z AUTO 28003KT 10SM CLR 19/12 A3042 RMK AO2 SLP299 T01890117
                 50007 =
2017-10-22 09:56 METAR KPVC 221356Z AUTO 25003KT 10SM CLR 18/12 A3042 RMK AO2 SLP299 T01780117 =
2017-10-22 08:56 METAR KPVC 221256Z AUTO 25004KT 10SM CLR 16/13 A3041 RMK AO2 SLP297 T01610128 =
2017-10-22 07:56 METAR KPVC 221156Z AUTO 00000KT 10SM CLR 11/10 A3040 RMK AO2 SLP292 T01110100
                 10144 20100 53015 =
2017-10-22 06:56 METAR KPVC 221056Z AUTO 22003KT 10SM CLR 11/10 A3037 RMK AO2 SLP284 T01060100 =
2017-10-22 05:56 METAR KPVC 220956Z AUTO 19003KT 10SM CLR 11/10 A3036 RMK AO2 SLP281 T01060100 =
2017-10-22 04:56 METAR KPVC 220856Z AUTO 21003KT 10SM CLR 12/11 A3035 RMK AO2 SLP277 T01220111
                 53005 =
2017-10-22 03:56 METAR KPVC 220756Z AUTO 22005KT 10SM CLR 13/13 A3034 RMK AO2 SLP275 T01330128 =
2017-10-22 02:56 METAR KPVC 220656Z AUTO 20005KT 10SM CLR 14/13 A3033 RMK AO2 SLP272 T01390128 =
2017-10-22 01:56 METAR KPVC 220556Z AUTO 20006KT 10SM CLR 14/13 A3034 RMK AO2 SLP272 T01440133
                 10150 20144 56000 =
2017-10-22 00:56 METAR KPVC 220456Z AUTO 18006KT 10SM CLR 14/13 A3034 RMK AO2 SLP272 T01440128
                 402060067 =
2017-10-21 23:56 METAR KPVC 220356Z AUTO 20006KT 10SM CLR 15/13 A3034 RMK AO2 SLP272 T01500128 =
2017-10-21 22:56 METAR KPVC 220256Z AUTO 20008KT 10SM CLR 15/13 A3034 RMK AO2 SLP272 T01500128
                 51007 =
2017-10-21 21:56 METAR KPVC 220156Z AUTO 20008KT 10SM CLR 15/12 A3034 RMK AO2 SLP272 T01500122 =
2017-10-21 20:56 METAR KPVC 220056Z AUTO 20007KT 10SM CLR 15/12 A3032 RMK AO2 SLP267 T01500122 =

Support USWX by starting your Amazon purchase here.